createdAt,value
2018-10-11T00:01:34.138Z,19.20
2018-10-11T00:04:04.674Z,20.70
2018-10-11T00:06:37.778Z,20.97
2018-10-11T00:09:10.653Z,24.53
2018-10-11T00:11:40.845Z,25.90
2018-10-11T00:14:18.850Z,24.87
2018-10-11T00:16:54.137Z,23.30
2018-10-11T00:19:30.940Z,21.33
2018-10-11T00:22:01.240Z,23.37
2018-10-11T00:24:31.428Z,25.07
2018-10-11T00:27:01.792Z,22.93
2018-10-11T00:29:31.981Z,28.90
2018-10-11T00:32:02.196Z,22.03
2018-10-11T00:34:32.360Z,25.57
2018-10-11T00:37:02.449Z,27.60
2018-10-11T00:39:32.626Z,20.67
2018-10-11T00:42:02.739Z,20.97
2018-10-11T00:44:32.906Z,25.93
2018-10-11T00:47:03.031Z,22.30
2018-10-11T00:49:33.335Z,22.70
2018-10-11T00:52:03.430Z,21.77
2018-10-11T00:54:33.521Z,25.33
2018-10-11T00:57:03.632Z,25.60
2018-10-11T00:59:33.844Z,25.40
2018-10-11T01:02:03.965Z,21.07
2018-10-11T01:04:34.210Z,25.10
2018-10-11T01:07:04.416Z,24.13
2018-10-11T01:09:34.638Z,23.47
2018-10-11T01:12:04.791Z,21.80
2018-10-11T01:14:34.994Z,23.03
2018-10-11T01:17:05.156Z,27.07
2018-10-11T01:19:35.369Z,24.77
2018-10-11T01:22:05.493Z,25.80
2018-10-11T01:24:35.822Z,23.17
2018-10-11T01:27:05.943Z,26.37
2018-10-11T01:29:36.138Z,22.93
2018-10-11T01:32:06.231Z,27.77
2018-10-11T01:34:36.383Z,22.30
2018-10-11T01:37:06.581Z,25.30
2018-10-11T01:39:36.802Z,24.53
2018-10-11T01:42:07.018Z,25.90
2018-10-11T01:44:37.311Z,29.53
2018-10-11T01:47:07.611Z,24.67
2018-10-11T01:49:37.845Z,23.50
2018-10-11T01:52:08.237Z,23.50
2018-10-11T01:54:38.431Z,22.30
2018-10-11T01:57:10.074Z,21.80
2018-10-11T01:59:40.247Z,25.87
2018-10-11T02:02:10.430Z,26.53
2018-10-11T02:04:40.633Z,28.60
2018-10-11T02:07:10.725Z,25.77
2018-10-11T02:09:40.879Z,22.10
2018-10-11T02:12:11.026Z,24.10
2018-10-11T02:14:41.224Z,26.43
2018-10-11T02:17:11.348Z,24.57
2018-10-11T02:19:41.581Z,26.37
2018-10-11T02:22:11.765Z,29.47
2018-10-11T02:24:42.015Z,25.40
2018-10-11T02:27:12.154Z,29.80
2018-10-11T02:29:42.317Z,27.93
2018-10-11T02:32:12.485Z,29.30
2018-10-11T02:34:42.668Z,25.07
2018-10-11T02:37:14.419Z,28.13
2018-10-11T02:39:44.585Z,30.80
2018-10-11T02:42:14.725Z,28.33
2018-10-11T02:44:44.995Z,25.43
2018-10-11T02:47:15.118Z,24.03
2018-10-11T02:49:45.346Z,25.17
2018-10-11T02:52:15.523Z,27.93
2018-10-11T02:54:45.789Z,34.73
2018-10-11T02:57:32.599Z,24.27
2018-10-11T03:00:04.602Z,30.30
2018-10-11T03:02:36.221Z,31.30
2018-10-11T03:05:12.624Z,29.30
2018-10-11T03:07:42.915Z,29.37
2018-10-11T03:10:13.217Z,27.03
2018-10-11T03:12:43.384Z,30.03
2018-10-11T03:15:13.636Z,29.17
2018-10-11T03:17:43.801Z,31.27
2018-10-11T03:20:13.931Z,30.53
2018-10-11T03:22:44.065Z,29.00
2018-10-11T03:25:14.254Z,39.03
2018-10-11T03:27:44.386Z,36.10
2018-10-11T03:30:14.593Z,33.50
2018-10-11T03:32:49.482Z,26.20
2018-10-11T03:35:19.845Z,27.47
2018-10-11T03:37:50.017Z,30.77
2018-10-11T03:40:20.144Z,32.23
2018-10-11T03:42:50.461Z,28.27
2018-10-11T03:45:20.652Z,29.93
2018-10-11T03:47:50.857Z,32.50
2018-10-11T03:50:21.041Z,34.60
2018-10-11T03:52:51.476Z,26.17
2018-10-11T03:55:21.612Z,33.93
2018-10-11T03:57:51.908Z,34.10
2018-10-11T04:00:22.179Z,27.07
2018-10-11T04:02:52.595Z,31.50
2018-10-11T04:05:22.776Z,29.83
2018-10-11T04:07:53.154Z,30.00
2018-10-11T04:10:23.330Z,24.90
2018-10-11T04:12:53.549Z,25.40
2018-10-11T04:15:23.705Z,29.50
2018-10-11T04:17:54.607Z,27.57
2018-10-11T04:20:24.770Z,30.07
2018-10-11T04:22:55.076Z,29.73
2018-10-11T04:25:25.790Z,31.57
2018-10-11T04:27:56.020Z,31.60
2018-10-11T04:30:26.575Z,25.17
2018-10-11T04:32:57.552Z,25.50
2018-10-11T04:35:27.755Z,30.87
2018-10-11T04:37:57.946Z,33.70
2018-10-11T04:40:28.088Z,27.10
2018-10-11T04:42:58.285Z,31.30
2018-10-11T04:45:28.460Z,35.37
2018-10-11T04:47:58.620Z,28.70
2018-10-11T04:50:28.719Z,35.17
2018-10-11T04:52:58.917Z,35.97
2018-10-11T04:55:29.004Z,33.67
2018-10-11T04:57:59.403Z,41.63
2018-10-11T05:00:29.572Z,35.30
2018-10-11T05:02:59.763Z,35.77
2018-10-11T05:05:30.065Z,37.73
2018-10-11T05:08:00.423Z,32.17
2018-10-11T05:10:30.642Z,37.67
2018-10-11T05:13:01.393Z,34.33
2018-10-11T05:15:32.046Z,35.30
2018-10-11T05:18:02.448Z,33.33
2018-10-11T05:20:32.690Z,46.23
2018-10-11T05:23:02.889Z,27.90
2018-10-11T05:25:33.802Z,31.67
2018-10-11T05:28:04.110Z,34.50
2018-10-11T05:30:35.129Z,31.97
2018-10-11T05:33:05.399Z,30.53
2018-10-11T05:35:35.509Z,29.97
2018-10-11T05:38:05.664Z,35.90
2018-10-11T05:40:35.850Z,35.13
2018-10-11T05:43:07.000Z,40.47
2018-10-11T05:45:38.388Z,36.80
2018-10-11T05:48:08.745Z,33.17
2018-10-11T05:50:39.201Z,40.97
2018-10-11T05:53:09.511Z,41.83
2018-10-11T05:55:39.898Z,38.87
2018-10-11T05:58:10.228Z,38.23
2018-10-11T06:00:40.444Z,38.37
2018-10-11T06:03:10.795Z,40.67
2018-10-11T06:05:41.014Z,39.00
2018-10-11T06:08:11.304Z,40.30
2018-10-11T06:10:43.628Z,39.50
2018-10-11T06:13:14.596Z,35.10
2018-10-11T06:15:44.920Z,35.50
2018-10-11T06:18:15.115Z,42.80
2018-10-11T06:20:45.734Z,36.90
2018-10-11T06:23:16.757Z,30.07
2018-10-11T06:25:46.986Z,33.97
2018-10-11T06:28:17.331Z,42.67
2018-10-11T06:30:47.916Z,35.80
2018-10-11T06:33:18.574Z,38.87
2018-10-11T06:35:49.001Z,33.70
2018-10-11T06:38:19.415Z,32.90
2018-10-11T06:40:49.777Z,36.80
2018-10-11T06:43:20.161Z,34.47
2018-10-11T06:45:50.471Z,38.20
2018-10-11T06:48:21.067Z,47.20
2018-10-11T06:50:51.348Z,47.60
2018-10-11T06:53:21.628Z,42.70
2018-10-11T06:55:51.835Z,35.50
2018-10-11T06:58:21.993Z,42.40
2018-10-11T07:00:52.132Z,34.97
2018-10-11T07:03:22.401Z,34.77
2018-10-11T07:05:52.543Z,25.10
2018-10-11T07:08:23.281Z,26.87
2018-10-11T07:10:53.401Z,24.50
2018-10-11T07:13:23.637Z,23.57
2018-10-11T07:15:53.761Z,16.80
2018-10-11T07:18:24.023Z,19.83
2018-10-11T07:20:54.277Z,19.83
2018-10-11T07:23:24.523Z,16.70
2018-10-11T07:25:54.822Z,20.03
2018-10-11T07:28:25.153Z,17.77
2018-10-11T07:30:55.296Z,18.97
2018-10-11T07:33:25.702Z,19.53
2018-10-11T07:35:55.805Z,22.57
2018-10-11T07:38:25.863Z,21.80
2018-10-11T07:40:56.083Z,21.43
2018-10-11T07:43:26.213Z,19.90
2018-10-11T07:45:56.485Z,17.50
2018-10-11T07:48:26.665Z,17.17
2018-10-11T07:50:56.782Z,18.93
2018-10-11T07:53:27.091Z,19.33
2018-10-11T07:55:57.414Z,21.23
2018-10-11T07:58:27.578Z,19.00
2018-10-11T08:00:59.857Z,19.93
2018-10-11T08:03:30.112Z,22.13
2018-10-11T08:06:00.496Z,22.87
2018-10-11T08:08:30.759Z,20.40
2018-10-11T08:11:01.021Z,23.83
2018-10-11T08:13:31.149Z,18.67
2018-10-11T08:16:01.208Z,20.10
2018-10-11T08:18:32.293Z,21.80
2018-10-11T08:21:02.991Z,17.20
2018-10-11T08:23:33.147Z,18.57
2018-10-11T08:26:03.665Z,20.50
2018-10-11T08:28:33.656Z,19.90
2018-10-11T08:31:03.805Z,20.50
2018-10-11T08:33:33.996Z,20.10
2018-10-11T08:36:04.124Z,19.00
2018-10-11T08:38:34.508Z,22.83
2018-10-11T08:41:04.542Z,18.33
2018-10-11T08:43:34.782Z,18.77
2018-10-11T08:46:04.839Z,18.80
2018-10-11T08:48:35.049Z,23.67
2018-10-11T08:51:05.214Z,25.90
2018-10-11T08:53:35.547Z,18.03
2018-10-11T08:56:05.852Z,17.40
2018-10-11T08:58:36.066Z,16.47
2018-10-11T09:01:06.307Z,17.13
2018-10-11T09:03:36.502Z,14.43
2018-10-11T09:06:06.609Z,15.60
2018-10-11T09:08:36.781Z,13.60
2018-10-11T09:11:07.070Z,17.17
2018-10-11T09:13:37.123Z,14.93
2018-10-11T09:16:07.279Z,15.27
2018-10-11T09:18:37.554Z,17.33
2018-10-11T09:21:08.297Z,16.17
2018-10-11T09:23:38.476Z,18.23
2018-10-11T09:26:08.697Z,13.80
2018-10-11T09:28:40.623Z,16.37
2018-10-11T09:31:15.838Z,14.97
2018-10-11T09:33:46.287Z,16.40
2018-10-11T09:36:16.652Z,16.77
2018-10-11T09:38:46.884Z,16.03
2018-10-11T09:41:17.891Z,14.33
2018-10-11T09:43:48.036Z,16.67
2018-10-11T09:46:18.182Z,15.67
2018-10-11T09:48:48.408Z,12.50
2018-10-11T09:51:18.989Z,15.50
2018-10-11T09:53:49.175Z,14.40
2018-10-11T09:56:19.326Z,13.70
2018-10-11T09:58:49.817Z,13.43
2018-10-11T10:01:25.072Z,12.73
2018-10-11T10:03:55.245Z,12.20
2018-10-11T10:06:25.504Z,11.40
2018-10-11T10:08:55.706Z,11.03
2018-10-11T10:11:26.129Z,12.50
2018-10-11T10:13:58.851Z,11.40
2018-10-11T10:16:31.993Z,15.47
2018-10-11T10:19:07.914Z,15.37
2018-10-11T10:21:38.386Z,11.17
2018-10-11T10:24:08.588Z,9.80
2018-10-11T10:26:38.874Z,9.97
2018-10-11T10:29:09.207Z,9.20
2018-10-11T10:31:39.518Z,7.80
2018-10-11T10:34:11.750Z,10.90
2018-10-11T10:36:41.895Z,9.57
2018-10-11T10:39:12.262Z,9.00
2018-10-11T10:41:42.580Z,8.93
2018-10-11T10:44:12.902Z,7.53
2018-10-11T10:46:43.174Z,7.13
2018-10-11T10:49:13.543Z,7.10
2018-10-11T10:51:43.821Z,6.70
2018-10-11T10:54:19.849Z,7.77
2018-10-11T10:56:50.198Z,6.77
2018-10-11T10:59:20.630Z,5.67
2018-10-11T11:01:50.808Z,8.00
2018-10-11T11:04:21.861Z,4.80
2018-10-11T11:06:54.984Z,3.70
2018-10-11T11:09:25.274Z,3.80
2018-10-11T11:11:55.496Z,5.77
2018-10-11T11:14:25.834Z,3.67
2018-10-11T11:16:56.595Z,4.63
2018-10-11T11:19:26.793Z,4.80
2018-10-11T11:21:56.943Z,5.60
2018-10-11T11:24:27.810Z,4.70
2018-10-11T11:26:58.037Z,4.30
2018-10-11T11:29:28.474Z,3.80
2018-10-11T11:31:58.579Z,5.20
2018-10-11T11:34:29.037Z,4.13
2018-10-11T11:36:59.348Z,5.43
2018-10-11T11:39:30.092Z,3.60
2018-10-11T11:42:00.277Z,4.40
2018-10-11T11:44:30.484Z,5.97
2018-10-11T11:47:00.636Z,3.20
2018-10-11T11:49:30.887Z,4.10
2018-10-11T11:52:00.994Z,3.80
2018-10-11T11:54:31.234Z,3.47
2018-10-11T11:57:01.454Z,4.57
2018-10-11T11:59:31.667Z,11.63
2018-10-11T12:02:01.987Z,4.73
2018-10-11T12:04:32.230Z,3.00
2018-10-11T12:07:02.414Z,3.40
2018-10-11T12:09:32.665Z,4.07
2018-10-11T12:12:02.848Z,3.47
2018-10-11T12:14:33.031Z,3.50
2018-10-11T12:17:03.423Z,7.30
2018-10-11T12:19:33.574Z,4.27
2018-10-11T12:22:03.804Z,4.50
2018-10-11T12:24:34.448Z,3.97
2018-10-11T12:27:04.630Z,3.40
2018-10-11T12:29:34.939Z,3.80
2018-10-11T12:32:05.439Z,3.70
2018-10-11T12:34:35.856Z,3.67
2018-10-11T12:37:06.147Z,3.50
2018-10-11T12:39:36.409Z,3.70
2018-10-11T12:42:06.588Z,4.07
2018-10-11T12:44:36.742Z,3.03
2018-10-11T12:47:07.177Z,3.10
2018-10-11T12:49:41.642Z,3.80
2018-10-11T12:52:07.894Z,4.50
2018-10-11T12:54:38.034Z,6.60
2018-10-11T12:57:11.953Z,3.67
2018-10-11T12:59:38.393Z,5.23
2018-10-11T13:02:08.672Z,3.10
2018-10-11T13:04:38.949Z,3.27
2018-10-11T13:07:10.001Z,4.00
2018-10-11T13:09:40.552Z,4.53
2018-10-11T13:12:10.740Z,4.10
2018-10-11T13:14:40.990Z,4.40
2018-10-11T13:17:11.352Z,4.67
2018-10-11T13:19:41.521Z,3.40
2018-10-11T13:22:11.819Z,4.77
2018-10-11T13:24:46.835Z,4.33
2018-10-11T13:27:12.356Z,4.33
2018-10-11T13:29:42.510Z,6.90
2018-10-11T13:32:12.754Z,6.93
2018-10-11T13:34:42.931Z,5.20
2018-10-11T13:37:13.009Z,4.20
2018-10-11T13:39:48.575Z,5.57
2018-10-11T13:42:13.698Z,5.40
2018-10-11T13:44:44.564Z,7.60
2018-10-11T13:47:14.801Z,9.10
2018-10-11T13:49:44.904Z,7.00
2018-10-11T13:52:18.230Z,6.33
2018-10-11T13:54:45.277Z,5.47
2018-10-11T13:57:15.710Z,4.80
2018-10-11T13:59:45.828Z,4.53
2018-10-11T14:02:15.959Z,5.27
2018-10-11T14:04:46.423Z,4.87
2018-10-11T14:07:16.747Z,6.20
2018-10-11T14:09:46.937Z,4.77
2018-10-11T14:12:17.141Z,6.33
2018-10-11T14:14:47.318Z,3.70
2018-10-11T14:17:17.645Z,4.53
2018-10-11T14:19:47.823Z,3.80
2018-10-11T14:22:18.097Z,3.90
2018-10-11T14:24:48.422Z,4.20
2018-10-11T14:27:18.654Z,5.70
2018-10-11T14:29:48.851Z,5.00
2018-10-11T14:32:18.953Z,5.03
2018-10-11T14:34:49.118Z,4.23
2018-10-11T14:37:19.340Z,5.73
2018-10-11T14:39:49.519Z,4.97
2018-10-11T14:42:19.733Z,7.37
2018-10-11T14:44:49.893Z,4.87
2018-10-11T14:47:20.058Z,4.93
2018-10-11T14:49:50.237Z,6.80
2018-10-11T14:52:20.378Z,4.77
2018-10-11T14:54:50.537Z,4.10
2018-10-11T14:57:20.709Z,7.00
2018-10-11T14:59:50.955Z,6.20
2018-10-11T15:02:21.139Z,7.00
2018-10-11T15:04:51.447Z,6.60
2018-10-11T15:07:21.524Z,5.53
2018-10-11T15:09:51.693Z,7.80
2018-10-11T15:12:21.882Z,6.50
2018-10-11T15:14:54.128Z,5.30
2018-10-11T15:17:24.285Z,4.90
2018-10-11T15:19:54.492Z,5.47
2018-10-11T15:22:24.610Z,7.93
2018-10-11T15:24:54.886Z,10.33
2018-10-11T15:27:25.126Z,9.10
2018-10-11T15:29:55.541Z,7.90
2018-10-11T15:32:25.591Z,6.80
2018-10-11T15:34:55.795Z,6.73
2018-10-11T15:37:25.962Z,6.40
2018-10-11T15:39:56.176Z,6.07
2018-10-11T15:42:26.365Z,7.07
2018-10-11T15:44:56.484Z,9.27
2018-10-11T15:47:26.686Z,7.10
2018-10-11T15:49:56.928Z,8.40
2018-10-11T15:52:27.103Z,7.17
2018-10-11T15:54:57.314Z,7.70
2018-10-11T15:57:27.441Z,8.43
2018-10-11T15:59:57.569Z,9.20
2018-10-11T16:02:27.697Z,6.90
2018-10-11T16:04:57.968Z,8.93
2018-10-11T16:07:28.082Z,7.33
2018-10-11T16:09:58.624Z,6.53
2018-10-11T16:12:28.837Z,6.13
2018-10-11T16:14:59.038Z,9.50
2018-10-11T16:17:29.229Z,8.20
2018-10-11T16:19:59.518Z,8.07
2018-10-11T16:22:29.713Z,9.53
2018-10-11T16:24:59.861Z,9.30
2018-10-11T16:27:29.996Z,11.63
2018-10-11T16:30:00.141Z,8.70
2018-10-11T16:32:30.368Z,10.83
2018-10-11T16:35:00.587Z,13.90
2018-10-11T16:37:30.762Z,11.17
2018-10-11T16:40:01.119Z,11.17
2018-10-11T16:42:31.421Z,8.87
2018-10-11T16:45:01.668Z,9.97
2018-10-11T16:47:31.860Z,8.57
2018-10-11T16:50:02.121Z,8.80
2018-10-11T16:52:32.213Z,9.13
2018-10-11T16:55:02.352Z,9.60
2018-10-11T16:57:32.429Z,7.33
2018-10-11T17:00:03.061Z,8.27
2018-10-11T17:02:33.350Z,6.10
2018-10-11T17:05:03.577Z,7.00
2018-10-11T17:07:33.725Z,7.20
2018-10-11T17:10:03.933Z,7.43
2018-10-11T17:12:34.111Z,7.37
2018-10-11T17:15:04.408Z,7.67
2018-10-11T17:17:34.600Z,8.60
2018-10-11T17:20:04.803Z,7.13
2018-10-11T17:22:35.248Z,6.70
2018-10-11T17:25:05.592Z,7.30
2018-10-11T17:27:35.906Z,10.93
2018-10-11T17:30:06.337Z,12.30
2018-10-11T17:32:36.575Z,9.23
2018-10-11T17:35:07.502Z,6.87
2018-10-11T17:37:37.658Z,9.10
2018-10-11T17:40:07.934Z,9.53
2018-10-11T17:42:38.080Z,8.13
2018-10-11T17:45:09.211Z,8.20
2018-10-11T17:47:39.330Z,7.93
2018-10-11T17:50:09.525Z,9.00
2018-10-11T17:52:39.604Z,8.20
2018-10-11T17:55:09.996Z,7.60
2018-10-11T17:57:40.253Z,9.97
2018-10-11T18:00:11.339Z,7.73
2018-10-11T18:02:41.475Z,8.50
2018-10-11T18:05:11.737Z,9.40
2018-10-11T18:07:41.854Z,10.20
2018-10-11T18:10:12.934Z,8.00
2018-10-11T18:12:43.842Z,10.63
2018-10-11T18:15:13.973Z,9.03
2018-10-11T18:17:44.082Z,8.80
2018-10-11T18:20:14.341Z,11.03
2018-10-11T18:22:44.498Z,12.13
2018-10-11T18:25:14.738Z,10.03
2018-10-11T18:27:44.945Z,14.30
2018-10-11T18:30:15.304Z,9.57
2018-10-11T18:32:45.460Z,9.00
2018-10-11T18:35:15.608Z,10.63
2018-10-11T18:37:45.789Z,10.30
2018-10-11T18:40:15.980Z,9.93
2018-10-11T18:42:46.104Z,8.63
2018-10-11T18:45:16.322Z,11.50
2018-10-11T18:47:46.477Z,10.17
2018-10-11T18:50:16.603Z,13.50
2018-10-11T18:52:46.870Z,12.53
2018-10-11T18:55:16.977Z,11.87
2018-10-11T18:57:47.116Z,11.37
2018-10-11T19:00:21.758Z,14.43
2018-10-11T19:02:53.371Z,12.20
2018-10-11T19:05:23.869Z,10.87
2018-10-11T19:07:54.113Z,13.80
2018-10-11T19:10:24.391Z,12.20
2018-10-11T19:12:54.528Z,13.13
2018-10-11T19:15:25.933Z,11.93
2018-10-11T19:17:56.080Z,14.10
2018-10-11T19:20:26.274Z,12.10
2018-10-11T19:22:56.554Z,13.93
2018-10-11T19:25:26.714Z,12.23
2018-10-11T19:27:57.013Z,11.07
2018-10-11T19:30:27.407Z,10.47
2018-10-11T19:32:59.228Z,11.60
2018-10-11T19:35:29.364Z,12.60
2018-10-11T19:38:00.091Z,11.00
2018-10-11T19:40:30.274Z,12.90
2018-10-11T19:43:00.629Z,12.40
2018-10-11T19:45:30.927Z,12.10
2018-10-11T19:48:01.263Z,14.00
2018-10-11T19:50:31.416Z,13.00
2018-10-11T19:53:01.711Z,13.87
2018-10-11T19:55:31.915Z,17.23
2018-10-11T19:58:02.217Z,13.90
2018-10-11T20:00:32.471Z,15.17
2018-10-11T20:03:03.820Z,14.67
2018-10-11T20:05:33.970Z,13.50
2018-10-11T20:08:04.343Z,14.17
2018-10-11T20:10:34.482Z,14.00
2018-10-11T20:13:04.753Z,13.87
2018-10-11T20:15:34.925Z,15.20
2018-10-11T20:18:05.177Z,13.80
2018-10-11T20:20:35.501Z,14.20
2018-10-11T20:23:05.724Z,15.00
2018-10-11T20:25:35.890Z,14.30
2018-10-11T20:28:06.211Z,15.60
2018-10-11T20:30:36.393Z,14.43
2018-10-11T20:33:09.059Z,18.77
2018-10-11T20:35:39.381Z,15.40
2018-10-11T20:38:09.572Z,15.07
2018-10-11T20:40:39.946Z,15.10
2018-10-11T20:43:10.072Z,16.20
2018-10-11T20:45:40.299Z,18.47
2018-10-11T20:48:10.686Z,16.67
2018-10-11T20:50:40.813Z,13.83
2018-10-11T20:53:11.113Z,15.20
2018-10-11T20:55:43.992Z,13.80
2018-10-11T20:58:14.142Z,15.87
2018-10-11T21:00:44.373Z,16.50
2018-10-11T21:03:14.837Z,15.60
2018-10-11T21:05:45.069Z,19.30
2018-10-11T21:08:15.194Z,15.13
2018-10-11T21:10:45.431Z,16.13
2018-10-11T21:13:15.563Z,16.70
2018-10-11T21:15:45.697Z,24.13
2018-10-11T21:18:15.914Z,14.53
2018-10-11T21:20:55.553Z,19.57
2018-10-11T21:23:25.948Z,16.37
2018-10-11T21:25:56.523Z,19.27
2018-10-11T21:28:26.669Z,18.90
2018-10-11T21:30:56.891Z,16.33
2018-10-11T21:33:27.005Z,18.07
2018-10-11T21:35:57.478Z,16.33
2018-10-11T21:38:27.814Z,21.20
2018-10-11T21:40:58.576Z,17.63
2018-10-11T21:43:28.816Z,17.53
2018-10-11T21:45:58.991Z,21.80
2018-10-11T21:48:29.178Z,19.83
2018-10-11T21:50:59.338Z,16.07
2018-10-11T21:53:29.641Z,20.03
2018-10-11T21:55:59.910Z,18.43
2018-10-11T21:58:30.059Z,17.83
2018-10-11T22:01:05.316Z,18.20
2018-10-11T22:03:35.454Z,14.03
2018-10-11T22:06:05.628Z,19.60
2018-10-11T22:08:36.061Z,16.47
2018-10-11T22:11:06.211Z,15.53
2018-10-11T22:13:36.419Z,17.13
2018-10-11T22:16:06.891Z,19.03
2018-10-11T22:18:37.039Z,18.07
2018-10-11T22:21:07.612Z,15.20
2018-10-11T22:23:38.085Z,16.13
2018-10-11T22:26:08.657Z,16.70
2018-10-11T22:28:39.379Z,15.13
2018-10-11T22:31:12.048Z,15.47
2018-10-11T22:33:43.107Z,19.50
2018-10-11T22:36:13.822Z,17.20
2018-10-11T22:38:45.321Z,16.73
2018-10-11T22:41:15.698Z,16.20
2018-10-11T22:43:45.910Z,17.60
2018-10-11T22:46:16.181Z,13.87
2018-10-11T22:48:46.316Z,18.00
2018-10-11T22:51:16.602Z,17.17
2018-10-11T22:53:46.800Z,17.63
2018-10-11T22:56:20.973Z,16.80
2018-10-11T22:58:52.803Z,15.57
2018-10-11T23:01:23.120Z,13.17
2018-10-11T23:03:53.231Z,17.13
2018-10-11T23:06:23.455Z,18.40
2018-10-11T23:08:53.566Z,16.63
2018-10-11T23:11:24.455Z,15.30
2018-10-11T23:13:54.572Z,16.67
2018-10-11T23:16:24.742Z,17.10
2018-10-11T23:18:54.902Z,14.10
2018-10-11T23:21:25.130Z,14.53
2018-10-11T23:23:55.305Z,16.73
2018-10-11T23:26:25.525Z,15.33
2018-10-11T23:28:55.655Z,13.80
2018-10-11T23:31:25.845Z,17.53
2018-10-11T23:33:55.986Z,14.47
2018-10-11T23:36:26.109Z,16.40
2018-10-11T23:38:56.287Z,14.27
2018-10-11T23:41:26.431Z,13.87
2018-10-11T23:43:56.625Z,13.70
2018-10-11T23:46:26.806Z,16.33
2018-10-11T23:48:56.961Z,14.23
2018-10-11T23:51:27.119Z,14.20
2018-10-11T23:53:57.314Z,15.50
2018-10-11T23:56:27.529Z,16.60
2018-10-11T23:58:57.672Z,13.97
